sensor_id;sensor_type;location;lat;lon;timestamp;P1;durP1;ratioP1;P2;durP2;ratioP2
11767;SDS011;5941;57.652;12.514;2022-11-13T00:03:59;3.87;;;1.40;;
11767;SDS011;5941;57.652;12.514;2022-11-13T00:06:25;2.63;;;1.30;;
11767;SDS011;5941;57.652;12.514;2022-11-13T00:08:54;2.90;;;1.60;;
11767;SDS011;5941;57.652;12.514;2022-11-13T00:11:20;3.73;;;1.43;;
11767;SDS011;5941;57.652;12.514;2022-11-13T00:13:46;4.80;;;1.40;;
11767;SDS011;5941;57.652;12.514;2022-11-13T00:16:14;3.97;;;1.00;;
11767;SDS011;5941;57.652;12.514;2022-11-13T00:18:40;3.77;;;1.40;;
11767;SDS011;5941;57.652;12.514;2022-11-13T00:21:08;4.53;;;1.30;;
11767;SDS011;5941;57.652;12.514;2022-11-13T00:23:34;4.67;;;1.40;;
11767;SDS011;5941;57.652;12.514;2022-11-13T00:26:07;6.70;;;1.60;;
11767;SDS011;5941;57.652;12.514;2022-11-13T00:28:33;5.10;;;1.40;;
11767;SDS011;5941;57.652;12.514;2022-11-13T00:31:00;5.50;;;1.70;;
11767;SDS011;5941;57.652;12.514;2022-11-13T00:33:26;4.27;;;1.40;;
11767;SDS011;5941;57.652;12.514;2022-11-13T00:35:52;5.63;;;1.60;;
11767;SDS011;5941;57.652;12.514;2022-11-13T00:38:18;3.13;;;1.30;;
11767;SDS011;5941;57.652;12.514;2022-11-13T00:40:44;6.03;;;2.00;;
11767;SDS011;5941;57.652;12.514;2022-11-13T00:43:10;6.40;;;2.00;;
11767;SDS011;5941;57.652;12.514;2022-11-13T00:45:36;6.53;;;2.00;;
11767;SDS011;5941;57.652;12.514;2022-11-13T00:48:02;6.20;;;1.70;;
11767;SDS011;5941;57.652;12.514;2022-11-13T00:50:28;7.50;;;1.80;;
11767;SDS011;5941;57.652;12.514;2022-11-13T00:52:54;5.07;;;1.90;;
11767;SDS011;5941;57.652;12.514;2022-11-13T00:55:20;4.47;;;1.57;;
11767;SDS011;5941;57.652;12.514;2022-11-13T00:57:46;3.77;;;1.40;;
11767;SDS011;5941;57.652;12.514;2022-11-13T01:00:12;4.83;;;1.67;;
11767;SDS011;5941;57.652;12.514;2022-11-13T01:02:38;6.33;;;1.47;;
11767;SDS011;5941;57.652;12.514;2022-11-13T01:05:04;4.87;;;1.63;;
11767;SDS011;5941;57.652;12.514;2022-11-13T01:07:30;5.63;;;1.67;;
11767;SDS011;5941;57.652;12.514;2022-11-13T01:09:56;4.50;;;2.20;;
11767;SDS011;5941;57.652;12.514;2022-11-13T01:12:23;7.97;;;2.00;;
11767;SDS011;5941;57.652;12.514;2022-11-13T01:14:49;5.20;;;1.63;;
11767;SDS011;5941;57.652;12.514;2022-11-13T01:17:15;3.20;;;1.60;;
11767;SDS011;5941;57.652;12.514;2022-11-13T01:19:41;2.17;;;1.40;;
11767;SDS011;5941;57.652;12.514;2022-11-13T01:22:07;2.97;;;1.40;;
11767;SDS011;5941;57.652;12.514;2022-11-13T01:24:33;4.83;;;1.40;;
11767;SDS011;5941;57.652;12.514;2022-11-13T01:26:59;7.57;;;1.90;;
11767;SDS011;5941;57.652;12.514;2022-11-13T01:29:25;6.07;;;1.43;;
11767;SDS011;5941;57.652;12.514;2022-11-13T01:31:51;6.27;;;1.50;;
11767;SDS011;5941;57.652;12.514;2022-11-13T01:34:17;2.90;;;1.37;;
11767;SDS011;5941;57.652;12.514;2022-11-13T01:36:43;4.10;;;1.50;;
11767;SDS011;5941;57.652;12.514;2022-11-13T01:39:10;6.77;;;1.70;;
11767;SDS011;5941;57.652;12.514;2022-11-13T01:41:36;4.80;;;1.50;;
11767;SDS011;5941;57.652;12.514;2022-11-13T01:44:02;6.00;;;1.63;;
11767;SDS011;5941;57.652;12.514;2022-11-13T01:48:58;5.10;;;1.50;;
11767;SDS011;5941;57.652;12.514;2022-11-13T01:51:29;6.43;;;1.90;;
11767;SDS011;5941;57.652;12.514;2022-11-13T01:53:55;6.23;;;1.50;;
11767;SDS011;5941;57.652;12.514;2022-11-13T01:56:22;5.33;;;1.57;;
11767;SDS011;5941;57.652;12.514;2022-11-13T01:58:51;3.47;;;1.23;;
11767;SDS011;5941;57.652;12.514;2022-11-13T02:01:17;4.10;;;1.67;;
11767;SDS011;5941;57.652;12.514;2022-11-13T02:03:43;3.57;;;1.57;;
11767;SDS011;5941;57.652;12.514;2022-11-13T02:06:09;7.97;;;1.50;;
11767;SDS011;5941;57.652;12.514;2022-11-13T02:08:35;5.63;;;1.50;;
11767;SDS011;5941;57.652;12.514;2022-11-13T02:11:01;4.60;;;1.43;;
11767;SDS011;5941;57.652;12.514;2022-11-13T02:13:27;2.50;;;1.30;;
11767;SDS011;5941;57.652;12.514;2022-11-13T02:15:53;4.27;;;1.40;;
11767;SDS011;5941;57.652;12.514;2022-11-13T02:18:20;4.77;;;1.43;;
11767;SDS011;5941;57.652;12.514;2022-11-13T02:23:42;3.80;;;1.40;;
11767;SDS011;5941;57.652;12.514;2022-11-13T02:26:10;3.37;;;1.33;;
11767;SDS011;5941;57.652;12.514;2022-11-13T02:28:37;6.00;;;1.33;;
11767;SDS011;5941;57.652;12.514;2022-11-13T02:31:10;4.33;;;1.50;;
11767;SDS011;5941;57.652;12.514;2022-11-13T02:33:36;3.20;;;1.70;;
11767;SDS011;5941;57.652;12.514;2022-11-13T02:36:02;2.70;;;1.20;;
11767;SDS011;5941;57.652;12.514;2022-11-13T02:38:29;7.40;;;1.60;;
11767;SDS011;5941;57.652;12.514;2022-11-13T02:40:56;3.13;;;1.23;;
11767;SDS011;5941;57.652;12.514;2022-11-13T02:43:22;3.63;;;1.60;;
11767;SDS011;5941;57.652;12.514;2022-11-13T02:45:48;2.93;;;1.43;;
11767;SDS011;5941;57.652;12.514;2022-11-13T02:48:14;3.63;;;1.30;;
11767;SDS011;5941;57.652;12.514;2022-11-13T02:50:40;3.40;;;1.20;;
11767;SDS011;5941;57.652;12.514;2022-11-13T02:53:06;3.67;;;1.37;;
11767;SDS011;5941;57.652;12.514;2022-11-13T02:55:32;3.27;;;1.37;;
11767;SDS011;5941;57.652;12.514;2022-11-13T02:57:58;5.50;;;1.60;;
11767;SDS011;5941;57.652;12.514;2022-11-13T03:00:24;3.03;;;1.70;;
11767;SDS011;5941;57.652;12.514;2022-11-13T03:02:50;2.10;;;1.40;;
11767;SDS011;5941;57.652;12.514;2022-11-13T03:05:16;3.23;;;1.50;;
11767;SDS011;5941;57.652;12.514;2022-11-13T03:07:42;4.87;;;1.60;;
11767;SDS011;5941;57.652;12.514;2022-11-13T03:10:08;5.23;;;1.70;;
11767;SDS011;5941;57.652;12.514;2022-11-13T03:12:35;2.90;;;1.40;;
11767;SDS011;5941;57.652;12.514;2022-11-13T03:15:01;4.37;;;1.73;;
11767;SDS011;5941;57.652;12.514;2022-11-13T03:17:29;5.53;;;1.30;;
11767;SDS011;5941;57.652;12.514;2022-11-13T03:19:55;4.20;;;1.50;;
11767;SDS011;5941;57.652;12.514;2022-11-13T03:22:21;2.90;;;1.43;;
11767;SDS011;5941;57.652;12.514;2022-11-13T03:24:47;4.40;;;1.20;;
11767;SDS011;5941;57.652;12.514;2022-11-13T03:27:13;3.20;;;1.20;;
11767;SDS011;5941;57.652;12.514;2022-11-13T03:29:39;3.07;;;1.17;;
11767;SDS011;5941;57.652;12.514;2022-11-13T03:32:05;2.73;;;1.23;;
11767;SDS011;5941;57.652;12.514;2022-11-13T03:34:31;2.40;;;1.10;;
11767;SDS011;5941;57.652;12.514;2022-11-13T03:36:57;2.97;;;1.13;;
11767;SDS011;5941;57.652;12.514;2022-11-13T03:39:23;3.20;;;1.47;;
11767;SDS011;5941;57.652;12.514;2022-11-13T03:41:49;2.83;;;1.30;;
11767;SDS011;5941;57.652;12.514;2022-11-13T03:44:15;3.70;;;1.10;;
11767;SDS011;5941;57.652;12.514;2022-11-13T03:46:41;2.20;;;1.30;;
11767;SDS011;5941;57.652;12.514;2022-11-13T03:49:07;3.83;;;1.50;;
11767;SDS011;5941;57.652;12.514;2022-11-13T03:51:33;1.93;;;1.10;;
11767;SDS011;5941;57.652;12.514;2022-11-13T03:53:59;3.67;;;1.20;;
11767;SDS011;5941;57.652;12.514;2022-11-13T03:56:25;3.10;;;1.40;;
11767;SDS011;5941;57.652;12.514;2022-11-13T03:58:51;1.67;;;1.20;;
11767;SDS011;5941;57.652;12.514;2022-11-13T04:01:17;2.30;;;1.20;;
11767;SDS011;5941;57.652;12.514;2022-11-13T04:03:43;2.10;;;1.30;;
11767;SDS011;5941;57.652;12.514;2022-11-13T04:06:09;1.80;;;1.20;;
11767;SDS011;5941;57.652;12.514;2022-11-13T04:08:35;2.90;;;1.40;;
11767;SDS011;5941;57.652;12.514;2022-11-13T04:11:05;2.53;;;1.20;;
11767;SDS011;5941;57.652;12.514;2022-11-13T04:13:31;1.60;;;1.00;;
11767;SDS011;5941;57.652;12.514;2022-11-13T04:15:57;1.70;;;1.13;;
11767;SDS011;5941;57.652;12.514;2022-11-13T04:18:23;2.93;;;1.27;;
11767;SDS011;5941;57.652;12.514;2022-11-13T04:20:49;1.40;;;1.23;;
11767;SDS011;5941;57.652;12.514;2022-11-13T04:23:15;2.27;;;1.30;;
11767;SDS011;5941;57.652;12.514;2022-11-13T04:25:42;1.80;;;1.10;;
11767;SDS011;5941;57.652;12.514;2022-11-13T04:28:08;2.97;;;1.27;;
11767;SDS011;5941;57.652;12.514;2022-11-13T04:30:34;1.93;;;1.40;;
11767;SDS011;5941;57.652;12.514;2022-11-13T04:33:00;1.77;;;1.17;;
11767;SDS011;5941;57.652;12.514;2022-11-13T04:35:26;2.43;;;1.30;;
11767;SDS011;5941;57.652;12.514;2022-11-13T04:37:52;3.03;;;1.00;;
11767;SDS011;5941;57.652;12.514;2022-11-13T04:40:18;2.37;;;1.30;;
11767;SDS011;5941;57.652;12.514;2022-11-13T04:42:44;2.23;;;1.10;;
11767;SDS011;5941;57.652;12.514;2022-11-13T04:45:14;1.57;;;1.10;;
11767;SDS011;5941;57.652;12.514;2022-11-13T04:47:40;1.67;;;0.97;;
11767;SDS011;5941;57.652;12.514;2022-11-13T04:50:06;4.07;;;1.20;;
11767;SDS011;5941;57.652;12.514;2022-11-13T04:52:32;3.17;;;1.30;;
11767;SDS011;5941;57.652;12.514;2022-11-13T04:54:58;4.40;;;1.37;;
11767;SDS011;5941;57.652;12.514;2022-11-13T04:57:24;2.37;;;1.50;;
11767;SDS011;5941;57.652;12.514;2022-11-13T04:59:50;2.97;;;1.10;;
11767;SDS011;5941;57.652;12.514;2022-11-13T05:02:16;1.60;;;1.10;;
11767;SDS011;5941;57.652;12.514;2022-11-13T05:04:42;1.97;;;1.10;;
11767;SDS011;5941;57.652;12.514;2022-11-13T05:07:08;0.80;;;0.80;;
11767;SDS011;5941;57.652;12.514;2022-11-13T05:09:34;2.07;;;1.00;;
11767;SDS011;5941;57.652;12.514;2022-11-13T05:12:00;2.07;;;1.23;;
11767;SDS011;5941;57.652;12.514;2022-11-13T05:14:26;2.23;;;1.30;;
11767;SDS011;5941;57.652;12.514;2022-11-13T05:16:52;3.97;;;1.10;;
11767;SDS011;5941;57.652;12.514;2022-11-13T05:19:18;2.33;;;1.23;;
11767;SDS011;5941;57.652;12.514;2022-11-13T05:21:44;1.33;;;1.20;;
11767;SDS011;5941;57.652;12.514;2022-11-13T05:24:10;1.30;;;1.20;;
11767;SDS011;5941;57.652;12.514;2022-11-13T05:26:39;3.07;;;1.47;;
11767;SDS011;5941;57.652;12.514;2022-11-13T05:29:05;2.37;;;1.43;;
11767;SDS011;5941;57.652;12.514;2022-11-13T05:31:31;2.67;;;1.23;;
11767;SDS011;5941;57.652;12.514;2022-11-13T05:33:57;1.80;;;1.07;;
11767;SDS011;5941;57.652;12.514;2022-11-13T05:36:23;1.30;;;1.20;;
11767;SDS011;5941;57.652;12.514;2022-11-13T05:38:49;1.30;;;1.20;;
11767;SDS011;5941;57.652;12.514;2022-11-13T05:41:16;1.30;;;1.20;;
11767;SDS011;5941;57.652;12.514;2022-11-13T05:43:43;1.83;;;1.00;;
11767;SDS011;5941;57.652;12.514;2022-11-13T05:46:10;1.70;;;1.07;;
11767;SDS011;5941;57.652;12.514;2022-11-13T05:48:37;1.30;;;0.93;;
11767;SDS011;5941;57.652;12.514;2022-11-13T05:51:04;1.50;;;1.00;;
11767;SDS011;5941;57.652;12.514;2022-11-13T05:53:30;2.03;;;1.13;;
11767;SDS011;5941;57.652;12.514;2022-11-13T05:56:22;1.53;;;1.20;;
11767;SDS011;5941;57.652;12.514;2022-11-13T05:58:46;2.40;;;0.90;;
11767;SDS011;5941;57.652;12.514;2022-11-13T06:01:13;2.93;;;1.20;;
11767;SDS011;5941;57.652;12.514;2022-11-13T06:03:40;0.77;;;0.77;;
11767;SDS011;5941;57.652;12.514;2022-11-13T06:06:06;1.20;;;1.00;;
11767;SDS011;5941;57.652;12.514;2022-11-13T06:08:33;1.20;;;1.00;;
11767;SDS011;5941;57.652;12.514;2022-11-13T06:11:03;1.00;;;0.90;;
11767;SDS011;5941;57.652;12.514;2022-11-13T06:13:29;1.13;;;1.03;;
11767;SDS011;5941;57.652;12.514;2022-11-13T06:15:59;1.00;;;0.83;;
11767;SDS011;5941;57.652;12.514;2022-11-13T06:18:25;1.80;;;0.90;;
11767;SDS011;5941;57.652;12.514;2022-11-13T06:20:52;0.90;;;0.87;;
11767;SDS011;5941;57.652;12.514;2022-11-13T06:23:18;1.93;;;1.00;;
11767;SDS011;5941;57.652;12.514;2022-11-13T06:25:44;1.03;;;1.00;;
11767;SDS011;5941;57.652;12.514;2022-11-13T06:28:10;1.50;;;0.93;;
11767;SDS011;5941;57.652;12.514;2022-11-13T06:30:36;2.13;;;0.87;;
11767;SDS011;5941;57.652;12.514;2022-11-13T06:33:02;1.30;;;1.10;;
11767;SDS011;5941;57.652;12.514;2022-11-13T06:35:28;1.10;;;1.00;;
11767;SDS011;5941;57.652;12.514;2022-11-13T06:37:54;1.50;;;1.00;;
11767;SDS011;5941;57.652;12.514;2022-11-13T06:40:20;1.63;;;1.10;;
11767;SDS011;5941;57.652;12.514;2022-11-13T06:42:46;1.00;;;0.97;;
11767;SDS011;5941;57.652;12.514;2022-11-13T06:45:12;1.03;;;0.90;;
11767;SDS011;5941;57.652;12.514;2022-11-13T06:47:38;0.87;;;0.87;;
11767;SDS011;5941;57.652;12.514;2022-11-13T06:50:04;1.37;;;0.93;;
11767;SDS011;5941;57.652;12.514;2022-11-13T06:52:31;1.63;;;1.10;;
11767;SDS011;5941;57.652;12.514;2022-11-13T06:54:57;1.77;;;1.20;;
11767;SDS011;5941;57.652;12.514;2022-11-13T06:57:24;1.80;;;1.20;;
11767;SDS011;5941;57.652;12.514;2022-11-13T06:59:50;1.10;;;1.00;;
11767;SDS011;5941;57.652;12.514;2022-11-13T07:02:16;1.87;;;1.20;;
11767;SDS011;5941;57.652;12.514;2022-11-13T07:04:42;1.60;;;1.00;;
11767;SDS011;5941;57.652;12.514;2022-11-13T07:07:08;1.10;;;0.90;;
11767;SDS011;5941;57.652;12.514;2022-11-13T07:09:34;1.53;;;1.20;;
11767;SDS011;5941;57.652;12.514;2022-11-13T07:12:00;1.33;;;1.20;;
11767;SDS011;5941;57.652;12.514;2022-11-13T07:14:25;1.17;;;1.07;;
11767;SDS011;5941;57.652;12.514;2022-11-13T07:16:51;1.30;;;1.20;;
11767;SDS011;5941;57.652;12.514;2022-11-13T07:19:17;2.00;;;1.30;;
11767;SDS011;5941;57.652;12.514;2022-11-13T07:21:43;1.20;;;1.10;;
11767;SDS011;5941;57.652;12.514;2022-11-13T07:24:09;4.47;;;1.20;;
11767;SDS011;5941;57.652;12.514;2022-11-13T07:26:35;1.40;;;1.30;;
11767;SDS011;5941;57.652;12.514;2022-11-13T07:29:01;1.43;;;1.33;;
11767;SDS011;5941;57.652;12.514;2022-11-13T07:31:27;4.63;;;1.50;;
11767;SDS011;5941;57.652;12.514;2022-11-13T07:33:53;1.60;;;1.27;;
11767;SDS011;5941;57.652;12.514;2022-11-13T07:36:19;2.17;;;1.37;;
11767;SDS011;5941;57.652;12.514;2022-11-13T07:38:45;1.20;;;1.10;;
11767;SDS011;5941;57.652;12.514;2022-11-13T07:41:11;1.63;;;1.30;;
11767;SDS011;5941;57.652;12.514;2022-11-13T07:43:37;2.07;;;1.30;;
11767;SDS011;5941;57.652;12.514;2022-11-13T07:46:03;1.30;;;1.20;;
11767;SDS011;5941;57.652;12.514;2022-11-13T07:48:29;1.33;;;1.10;;
11767;SDS011;5941;57.652;12.514;2022-11-13T07:50:58;2.17;;;1.20;;
11767;SDS011;5941;57.652;12.514;2022-11-13T07:53:24;1.67;;;1.00;;
11767;SDS011;5941;57.652;12.514;2022-11-13T07:55:50;3.10;;;1.30;;
11767;SDS011;5941;57.652;12.514;2022-11-13T07:58:16;1.80;;;1.13;;
11767;SDS011;5941;57.652;12.514;2022-11-13T08:00:42;1.40;;;1.07;;
11767;SDS011;5941;57.652;12.514;2022-11-13T08:03:10;0.87;;;0.87;;
11767;SDS011;5941;57.652;12.514;2022-11-13T08:05:38;2.03;;;1.10;;
11767;SDS011;5941;57.652;12.514;2022-11-13T08:08:04;1.23;;;1.00;;
11767;SDS011;5941;57.652;12.514;2022-11-13T08:10:30;1.77;;;1.20;;
11767;SDS011;5941;57.652;12.514;2022-11-13T08:12:57;1.60;;;1.10;;
11767;SDS011;5941;57.652;12.514;2022-11-13T08:15:23;1.20;;;1.10;;
11767;SDS011;5941;57.652;12.514;2022-11-13T08:17:53;1.07;;;1.07;;
11767;SDS011;5941;57.652;12.514;2022-11-13T08:20:19;1.37;;;1.17;;
11767;SDS011;5941;57.652;12.514;2022-11-13T08:22:45;1.30;;;1.00;;
11767;SDS011;5941;57.652;12.514;2022-11-13T08:25:11;2.87;;;1.20;;
11767;SDS011;5941;57.652;12.514;2022-11-13T08:27:37;1.37;;;1.13;;
11767;SDS011;5941;57.652;12.514;2022-11-13T08:30:03;1.50;;;1.40;;
11767;SDS011;5941;57.652;12.514;2022-11-13T08:32:29;1.90;;;1.40;;
11767;SDS011;5941;57.652;12.514;2022-11-13T08:34:55;3.10;;;1.20;;
11767;SDS011;5941;57.652;12.514;2022-11-13T08:37:21;1.20;;;1.10;;
11767;SDS011;5941;57.652;12.514;2022-11-13T08:39:47;3.43;;;1.20;;
11767;SDS011;5941;57.652;12.514;2022-11-13T08:42:13;1.10;;;1.00;;
11767;SDS011;5941;57.652;12.514;2022-11-13T08:44:39;1.80;;;1.40;;
11767;SDS011;5941;57.652;12.514;2022-11-13T08:47:05;1.87;;;1.40;;
11767;SDS011;5941;57.652;12.514;2022-11-13T08:49:31;1.23;;;1.13;;
11767;SDS011;5941;57.652;12.514;2022-11-13T08:51:57;1.80;;;1.00;;
11767;SDS011;5941;57.652;12.514;2022-11-13T08:54:23;3.50;;;1.47;;
11767;SDS011;5941;57.652;12.514;2022-11-13T08:56:49;2.67;;;1.40;;
11767;SDS011;5941;57.652;12.514;2022-11-13T08:59:15;1.83;;;1.20;;
11767;SDS011;5941;57.652;12.514;2022-11-13T09:01:41;1.40;;;1.20;;
11767;SDS011;5941;57.652;12.514;2022-11-13T09:04:07;1.30;;;1.20;;
11767;SDS011;5941;57.652;12.514;2022-11-13T09:06:33;1.50;;;1.40;;
11767;SDS011;5941;57.652;12.514;2022-11-13T09:08:59;2.00;;;1.40;;
11767;SDS011;5941;57.652;12.514;2022-11-13T09:11:25;1.53;;;1.33;;
11767;SDS011;5941;57.652;12.514;2022-11-13T09:13:52;1.70;;;1.60;;
11767;SDS011;5941;57.652;12.514;2022-11-13T09:16:18;1.70;;;1.60;;
11767;SDS011;5941;57.652;12.514;2022-11-13T09:18:44;2.70;;;1.50;;
11767;SDS011;5941;57.652;12.514;2022-11-13T09:21:10;1.50;;;1.40;;
11767;SDS011;5941;57.652;12.514;2022-11-13T09:23:36;3.37;;;1.73;;
11767;SDS011;5941;57.652;12.514;2022-11-13T09:26:02;2.93;;;1.60;;
11767;SDS011;5941;57.652;12.514;2022-11-13T09:28:28;1.87;;;1.70;;
11767;SDS011;5941;57.652;12.514;2022-11-13T09:30:54;1.93;;;1.60;;
11767;SDS011;5941;57.652;12.514;2022-11-13T09:33:20;1.73;;;1.63;;
11767;SDS011;5941;57.652;12.514;2022-11-13T09:35:46;2.07;;;1.77;;
11767;SDS011;5941;57.652;12.514;2022-11-13T09:38:13;2.43;;;2.23;;
11767;SDS011;5941;57.652;12.514;2022-11-13T09:43:16;2.27;;;1.83;;
11767;SDS011;5941;57.652;12.514;2022-11-13T09:45:45;2.67;;;2.00;;
11767;SDS011;5941;57.652;12.514;2022-11-13T09:48:23;2.30;;;1.80;;
11767;SDS011;5941;57.652;12.514;2022-11-13T09:50:50;2.43;;;2.00;;
11767;SDS011;5941;57.652;12.514;2022-11-13T09:53:16;2.20;;;1.97;;
11767;SDS011;5941;57.652;12.514;2022-11-13T09:55:46;2.13;;;1.73;;
11767;SDS011;5941;57.652;12.514;2022-11-13T09:58:18;1.40;;;1.00;;
11767;SDS011;5941;57.652;12.514;2022-11-13T10:00:45;1.67;;;1.37;;
11767;SDS011;5941;57.652;12.514;2022-11-13T10:03:17;1.20;;;1.10;;
11767;SDS011;5941;57.652;12.514;2022-11-13T10:05:53;0.80;;;0.80;;
11767;SDS011;5941;57.652;12.514;2022-11-13T10:11:06;1.33;;;1.10;;
11767;SDS011;5941;57.652;12.514;2022-11-13T10:13:38;1.30;;;1.20;;
11767;SDS011;5941;57.652;12.514;2022-11-13T10:16:14;1.20;;;1.10;;
11767;SDS011;5941;57.652;12.514;2022-11-13T10:18:41;0.73;;;0.73;;
11767;SDS011;5941;57.652;12.514;2022-11-13T10:23:54;1.43;;;0.83;;
11767;SDS011;5941;57.652;12.514;2022-11-13T10:26:22;0.90;;;0.90;;
11767;SDS011;5941;57.652;12.514;2022-11-13T10:28:58;0.83;;;0.83;;
11767;SDS011;5941;57.652;12.514;2022-11-13T10:31:25;0.80;;;0.80;;
11767;SDS011;5941;57.652;12.514;2022-11-13T10:33:51;0.80;;;0.80;;
11767;SDS011;5941;57.652;12.514;2022-11-13T10:38:49;1.20;;;1.00;;
11767;SDS011;5941;57.652;12.514;2022-11-13T10:41:19;1.27;;;1.17;;
11767;SDS011;5941;57.652;12.514;2022-11-13T10:44:04;1.00;;;1.00;;
11767;SDS011;5941;57.652;12.514;2022-11-13T10:46:30;1.37;;;1.27;;
11767;SDS011;5941;57.652;12.514;2022-11-13T10:48:57;1.33;;;1.17;;
11767;SDS011;5941;57.652;12.514;2022-11-13T10:51:25;1.30;;;1.20;;
11767;SDS011;5941;57.652;12.514;2022-11-13T10:53:52;1.37;;;1.27;;
11767;SDS011;5941;57.652;12.514;2022-11-13T10:56:28;1.67;;;1.00;;
11767;SDS011;5941;57.652;12.514;2022-11-13T10:59:34;1.73;;;1.30;;
11767;SDS011;5941;57.652;12.514;2022-11-13T11:01:47;1.20;;;1.10;;
11767;SDS011;5941;57.652;12.514;2022-11-13T11:04:22;1.67;;;1.30;;
11767;SDS011;5941;57.652;12.514;2022-11-13T11:06:48;1.20;;;1.10;;
11767;SDS011;5941;57.652;12.514;2022-11-13T11:09:24;1.63;;;1.10;;
11767;SDS011;5941;57.652;12.514;2022-11-13T11:17:08;1.00;;;1.00;;
11767;SDS011;5941;57.652;12.514;2022-11-13T11:19:36;1.83;;;1.03;;
11767;SDS011;5941;57.652;12.514;2022-11-13T11:22:14;0.90;;;0.90;;
11767;SDS011;5941;57.652;12.514;2022-11-13T11:24:43;1.60;;;1.50;;
11767;SDS011;5941;57.652;12.514;2022-11-13T11:27:14;1.07;;;0.97;;
11767;SDS011;5941;57.652;12.514;2022-11-13T11:34:45;2.13;;;1.17;;
11767;SDS011;5941;57.652;12.514;2022-11-13T11:37:18;1.50;;;1.40;;
11767;SDS011;5941;57.652;12.514;2022-11-13T11:40:04;1.47;;;0.80;;
11767;SDS011;5941;57.652;12.514;2022-11-13T11:42:37;0.60;;;0.60;;
11767;SDS011;5941;57.652;12.514;2022-11-13T11:47:44;2.50;;;0.67;;
11767;SDS011;5941;57.652;12.514;2022-11-13T11:50:11;0.60;;;0.60;;
11767;SDS011;5941;57.652;12.514;2022-11-13T11:55:28;0.87;;;0.87;;
11767;SDS011;5941;57.652;12.514;2022-11-13T12:00:24;0.60;;;0.60;;
11767;SDS011;5941;57.652;12.514;2022-11-13T12:02:57;0.70;;;0.70;;
11767;SDS011;5941;57.652;12.514;2022-11-13T12:08:18;1.47;;;0.93;;
11767;SDS011;5941;57.652;12.514;2022-11-13T12:11:00;0.93;;;0.80;;
11767;SDS011;5941;57.652;12.514;2022-11-13T12:13:28;0.70;;;0.70;;
11767;SDS011;5941;57.652;12.514;2022-11-13T12:23:45;0.60;;;0.60;;
11767;SDS011;5941;57.652;12.514;2022-11-13T12:36:19;0.37;;;0.37;;
11767;SDS011;5941;57.652;12.514;2022-11-13T12:46:16;0.50;;;0.50;;
11767;SDS011;5941;57.652;12.514;2022-11-13T12:48:46;0.50;;;0.50;;
11767;SDS011;5941;57.652;12.514;2022-11-13T12:51:13;1.33;;;0.50;;
11767;SDS011;5941;57.652;12.514;2022-11-13T13:01:41;0.50;;;0.50;;
11767;SDS011;5941;57.652;12.514;2022-11-13T13:04:17;0.60;;;0.40;;
11767;SDS011;5941;57.652;12.514;2022-11-13T13:12:28;0.50;;;0.50;;
11767;SDS011;5941;57.652;12.514;2022-11-13T13:17:24;0.50;;;0.50;;
11767;SDS011;5941;57.652;12.514;2022-11-13T13:19:57;0.60;;;0.60;;
11767;SDS011;5941;57.652;12.514;2022-11-13T13:22:30;0.43;;;0.43;;
11767;SDS011;5941;57.652;12.514;2022-11-13T13:24:59;1.13;;;0.50;;
11767;SDS011;5941;57.652;12.514;2022-11-13T13:27:26;1.40;;;0.60;;
11767;SDS011;5941;57.652;12.514;2022-11-13T13:29:52;1.13;;;0.40;;
11767;SDS011;5941;57.652;12.514;2022-11-13T13:47:57;0.77;;;0.40;;
11767;SDS011;5941;57.652;12.514;2022-11-13T13:50:27;0.40;;;0.40;;
11767;SDS011;5941;57.652;12.514;2022-11-13T13:52:54;1.10;;;0.40;;
11767;SDS011;5941;57.652;12.514;2022-11-13T13:55:31;1.80;;;0.50;;
11767;SDS011;5941;57.652;12.514;2022-11-13T13:58:00;0.40;;;0.40;;
11767;SDS011;5941;57.652;12.514;2022-11-13T14:00:27;0.40;;;0.40;;
11767;SDS011;5941;57.652;12.514;2022-11-13T14:02:53;0.67;;;0.40;;
11767;SDS011;5941;57.652;12.514;2022-11-13T14:05:24;0.30;;;0.30;;
11767;SDS011;5941;57.652;12.514;2022-11-13T14:07:50;1.37;;;0.60;;
11767;SDS011;5941;57.652;12.514;2022-11-13T14:10:17;0.50;;;0.50;;
11767;SDS011;5941;57.652;12.514;2022-11-13T14:12:44;0.40;;;0.40;;
11767;SDS011;5941;57.652;12.514;2022-11-13T14:20:40;0.47;;;0.47;;
11767;SDS011;5941;57.652;12.514;2022-11-13T14:23:08;0.50;;;0.40;;
11767;SDS011;5941;57.652;12.514;2022-11-13T14:25:35;0.40;;;0.33;;
11767;SDS011;5941;57.652;12.514;2022-11-13T14:28:01;0.67;;;0.50;;
11767;SDS011;5941;57.652;12.514;2022-11-13T14:30:27;0.90;;;0.40;;
11767;SDS011;5941;57.652;12.514;2022-11-13T14:32:54;0.63;;;0.40;;
11767;SDS011;5941;57.652;12.514;2022-11-13T14:35:21;1.40;;;0.50;;
11767;SDS011;5941;57.652;12.514;2022-11-13T14:37:48;1.13;;;0.50;;
11767;SDS011;5941;57.652;12.514;2022-11-13T14:40:25;4.33;;;0.60;;
11767;SDS011;5941;57.652;12.514;2022-11-13T14:43:01;0.93;;;0.40;;
11767;SDS011;5941;57.652;12.514;2022-11-13T14:45:31;0.30;;;0.30;;
11767;SDS011;5941;57.652;12.514;2022-11-13T14:48:40;0.47;;;0.40;;
11767;SDS011;5941;57.652;12.514;2022-11-13T14:50:48;0.50;;;0.40;;
11767;SDS011;5941;57.652;12.514;2022-11-13T14:53:15;0.50;;;0.40;;
11767;SDS011;5941;57.652;12.514;2022-11-13T14:55:51;1.43;;;0.60;;
11767;SDS011;5941;57.652;12.514;2022-11-13T14:58:33;0.50;;;0.50;;
11767;SDS011;5941;57.652;12.514;2022-11-13T15:01:13;0.50;;;0.50;;
11767;SDS011;5941;57.652;12.514;2022-11-13T15:03:43;1.40;;;0.53;;
11767;SDS011;5941;57.652;12.514;2022-11-13T15:06:19;1.40;;;0.50;;
11767;SDS011;5941;57.652;12.514;2022-11-13T15:08:45;0.63;;;0.50;;
11767;SDS011;5941;57.652;12.514;2022-11-13T15:11:12;2.27;;;0.70;;
11767;SDS011;5941;57.652;12.514;2022-11-13T15:13:39;0.60;;;0.50;;
11767;SDS011;5941;57.652;12.514;2022-11-13T15:16:05;0.70;;;0.70;;
11767;SDS011;5941;57.652;12.514;2022-11-13T15:18:31;0.50;;;0.50;;
11767;SDS011;5941;57.652;12.514;2022-11-13T15:20:57;1.00;;;0.60;;
11767;SDS011;5941;57.652;12.514;2022-11-13T15:23:24;0.60;;;0.60;;
11767;SDS011;5941;57.652;12.514;2022-11-13T15:25:50;0.70;;;0.60;;
11767;SDS011;5941;57.652;12.514;2022-11-13T15:28:16;0.73;;;0.70;;
11767;SDS011;5941;57.652;12.514;2022-11-13T15:30:42;0.63;;;0.63;;
11767;SDS011;5941;57.652;12.514;2022-11-13T15:33:11;0.70;;;0.70;;
11767;SDS011;5941;57.652;12.514;2022-11-13T15:35:39;0.77;;;0.67;;
11767;SDS011;5941;57.652;12.514;2022-11-13T15:38:05;0.97;;;0.53;;
11767;SDS011;5941;57.652;12.514;2022-11-13T15:40:31;2.27;;;0.80;;
11767;SDS011;5941;57.652;12.514;2022-11-13T15:42:57;0.60;;;0.53;;
11767;SDS011;5941;57.652;12.514;2022-11-13T15:45:25;1.40;;;0.50;;
11767;SDS011;5941;57.652;12.514;2022-11-13T15:47:51;1.17;;;0.60;;
11767;SDS011;5941;57.652;12.514;2022-11-13T15:50:17;0.60;;;0.60;;
11767;SDS011;5941;57.652;12.514;2022-11-13T15:52:46;0.60;;;0.60;;
11767;SDS011;5941;57.652;12.514;2022-11-13T15:55:26;0.50;;;0.50;;
11767;SDS011;5941;57.652;12.514;2022-11-13T15:57:53;0.60;;;0.60;;
11767;SDS011;5941;57.652;12.514;2022-11-13T16:00:23;0.70;;;0.70;;
11767;SDS011;5941;57.652;12.514;2022-11-13T16:02:50;1.90;;;0.73;;
11767;SDS011;5941;57.652;12.514;2022-11-13T16:05:19;1.73;;;0.60;;
11767;SDS011;5941;57.652;12.514;2022-11-13T16:07:47;0.87;;;0.60;;
11767;SDS011;5941;57.652;12.514;2022-11-13T16:10:14;0.97;;;0.60;;
11767;SDS011;5941;57.652;12.514;2022-11-13T16:12:40;2.60;;;0.80;;
11767;SDS011;5941;57.652;12.514;2022-11-13T16:15:07;2.90;;;1.10;;
11767;SDS011;5941;57.652;12.514;2022-11-13T16:17:37;1.47;;;1.00;;
11767;SDS011;5941;57.652;12.514;2022-11-13T16:20:04;2.20;;;1.63;;
11767;SDS011;5941;57.652;12.514;2022-11-13T16:22:31;1.73;;;0.90;;
11767;SDS011;5941;57.652;12.514;2022-11-13T16:24:57;2.80;;;0.97;;
11767;SDS011;5941;57.652;12.514;2022-11-13T16:27:28;3.63;;;1.23;;
11767;SDS011;5941;57.652;12.514;2022-11-13T16:29:54;1.43;;;1.27;;
11767;SDS011;5941;57.652;12.514;2022-11-13T16:32:20;1.43;;;1.20;;